Time;durP1;ratioP1;P1;durP2;ratioP2;P2;SDS_P1;SDS_P2;PMS_P1;PMS_P2;Temp;Humidity;BMP_temperature;BMP_pressure;BME280_temperature;BME280_humidity;BME280_pressure;Samples;Min_cycle;Max_cycle;Signal;HPM_P1;HPM_P2
2022/12/28 00:00:23;;;;;;;9.18;3.55;;;6.40;99.90;;;;;;5044791;28;20441;-61
2022/12/28 00:02:48;;;;;;;6.88;3.22;;;6.50;99.90;;;;;;5046648;28;20124;-61
2022/12/28 00:05:14;;;;;;;10.60;3.08;;;6.40;99.90;;;;;;5042237;28;20083;-61
2022/12/28 00:07:39;;;;;;;9.38;3.28;;;6.40;99.90;;;;;;5044629;28;20029;-61
2022/12/28 00:10:05;;;;;;;7.13;3.05;;;6.40;99.90;;;;;;5048382;28;20163;-61
2022/12/28 00:12:31;;;;;;;8.50;3.53;;;6.40;99.90;;;;;;5048287;28;20033;-61
2022/12/28 00:14:57;;;;;;;10.35;3.42;;;6.40;99.90;;;;;;5048465;28;20072;-61
2022/12/28 00:17:23;;;;;;;8.40;3.40;;;6.40;99.90;;;;;;5045322;28;20043;-61
2022/12/28 00:19:49;;;;;;;11.02;3.28;;;6.40;99.90;;;;;;5045107;28;20489;-60
2022/12/28 00:22:14;;;;;;;10.40;3.70;;;6.40;99.90;;;;;;5045901;28;20075;-61
2022/12/28 00:24:40;;;;;;;10.18;3.58;;;6.40;99.90;;;;;;5044444;28;20043;-61
2022/12/28 00:27:05;;;;;;;7.88;3.08;;;6.40;99.90;;;;;;5048179;28;20159;-60
2022/12/28 00:29:31;;;;;;;7.82;3.20;;;6.40;99.90;;;;;;5046805;28;20029;-61
2022/12/28 00:31:56;;;;;;;6.03;2.90;;;6.40;99.90;;;;;;5048047;28;20017;-61
2022/12/28 00:34:22;;;;;;;6.38;2.67;;;6.50;99.90;;;;;;5044864;28;20421;-61
2022/12/28 00:36:51;;;;;;;5.75;2.70;;;6.40;99.90;;;;;;5047473;28;20596;-61
2022/12/28 00:39:18;;;;;;;7.07;3.03;;;6.50;99.90;;;;;;5017067;28;20037;-60
2022/12/28 00:41:44;;;;;;;7.97;2.60;;;6.50;99.90;;;;;;5047566;28;20270;-61
2022/12/28 00:44:09;;;;;;;7.38;2.60;;;6.50;99.90;;;;;;5047929;28;20025;-61
2022/12/28 00:46:36;;;;;;;7.97;3.10;;;6.50;99.90;;;;;;5047528;28;20361;-60
2022/12/28 00:49:02;;;;;;;9.32;3.40;;;6.50;99.90;;;;;;5044198;28;20040;-61
2022/12/28 00:51:27;;;;;;;9.35;3.13;;;6.60;99.90;;;;;;5044374;28;20025;-61
2022/12/28 00:53:53;;;;;;;6.47;2.60;;;6.50;99.90;;;;;;5047604;28;20036;-61
2022/12/28 00:56:21;;;;;;;7.50;2.60;;;6.60;99.90;;;;;;5044741;28;20094;-61
2022/12/28 00:58:46;;;;;;;10.50;3.35;;;6.50;99.90;;;;;;5045222;28;20103;-60
2022/12/28 01:01:20;;;;;;;6.97;3.10;;;6.50;99.90;;;;;;5046900;28;20126;-61
2022/12/28 01:03:46;;;;;;;7.75;3.03;;;6.60;99.90;;;;;;5044127;28;20028;-60
2022/12/28 01:06:14;;;;;;;11.50;3.28;;;6.60;99.90;;;;;;5047003;28;20029;-60
2022/12/28 01:08:40;;;;;;;6.43;3.50;;;6.60;99.90;;;;;;5041031;28;20110;-61
2022/12/28 01:11:27;;;;;;;8.50;3.60;;;6.60;99.90;;;;;;5046784;28;20489;-61
2022/12/28 01:13:54;;;;;;;7.35;2.95;;;6.70;99.90;;;;;;5047017;28;20028;-61
2022/12/28 01:16:27;;;;;;;9.10;3.60;;;6.70;99.90;;;;;;5044666;28;20033;-61
2022/12/28 01:18:55;;;;;;;8.15;3.40;;;6.70;99.90;;;;;;5047541;28;20024;-60
2022/12/28 01:21:24;;;;;;;11.32;3.80;;;6.70;99.90;;;;;;5043487;28;20508;-61
2022/12/28 01:23:53;;;;;;;5.32;3.30;;;6.80;99.90;;;;;;5047369;28;20636;-61
2022/12/28 01:26:19;;;;;;;9.55;3.70;;;6.80;99.90;;;;;;5047515;28;20119;-60
2022/12/28 01:28:45;;;;;;;7.53;3.72;;;6.80;99.90;;;;;;5042759;28;20111;-61
2022/12/28 01:31:13;;;;;;;6.88;3.38;;;6.80;99.90;;;;;;5045032;28;20485;-61
2022/12/28 01:33:40;;;;;;;7.22;3.63;;;6.80;99.90;;;;;;5044475;28;20026;-61
2022/12/28 01:36:07;;;;;;;6.78;3.70;;;6.80;99.90;;;;;;5044379;28;20512;-61
2022/12/28 01:38:32;;;;;;;5.93;3.15;;;6.90;99.90;;;;;;5041466;28;20385;-60
2022/12/28 01:40:58;;;;;;;6.60;4.05;;;6.90;99.90;;;;;;5047015;28;20469;-60
2022/12/28 01:43:44;;;;;;;11.90;4.15;;;7.00;99.90;;;;;;5047212;28;20065;-61
2022/12/28 01:46:17;;;;;;;6.10;3.58;;;7.00;99.90;;;;;;5045300;28;20021;-61
2022/12/28 01:49:05;;;;;;;8.25;3.63;;;7.00;99.90;;;;;;5046900;28;20764;-61
2022/12/28 01:51:38;;;;;;;9.57;3.50;;;7.10;99.90;;;;;;5031025;28;20041;-61
2022/12/28 01:54:04;;;;;;;11.18;4.63;;;7.10;99.90;;;;;;5046611;28;20494;-61
2022/12/28 01:56:30;;;;;;;8.02;3.95;;;7.10;99.90;;;;;;5046774;28;20033;-61
2022/12/28 01:58:56;;;;;;;7.60;3.63;;;7.10;99.90;;;;;;5047026;28;20021;-61
2022/12/28 02:01:22;;;;;;;6.75;3.53;;;7.20;99.90;;;;;;5045368;28;20048;-61
2022/12/28 02:03:48;;;;;;;7.38;3.28;;;7.20;99.90;;;;;;5046170;28;20018;-60
2022/12/28 02:06:14;;;;;;;5.20;3.47;;;7.20;99.90;;;;;;5046544;28;20028;-60
2022/12/28 02:08:52;;;;;;;6.13;3.47;;;7.20;99.90;;;;;;5048135;28;20107;-61
2022/12/28 02:11:19;;;;;;;5.68;3.60;;;7.30;99.90;;;;;;5052254;28;20112;-61
2022/12/28 02:13:51;;;;;;;5.82;3.28;;;7.30;99.90;;;;;;5059314;28;20028;-60
2022/12/28 02:16:16;;;;;;;7.20;3.15;;;7.30;99.90;;;;;;5042136;28;20032;-61
2022/12/28 02:18:44;;;;;;;5.55;3.10;;;7.30;99.90;;;;;;5046098;28;20039;-61
2022/12/28 02:21:23;;;;;;;9.90;3.42;;;7.20;99.90;;;;;;5047191;28;20087;-60
2022/12/28 02:24:22;;;;;;;5.70;3.70;;;7.20;99.90;;;;;;5048079;28;20020;-60
2022/12/28 02:26:56;;;;;;;8.43;3.83;;;7.30;99.90;;;;;;5047576;28;20103;-61
2022/12/28 02:29:34;;;;;;;6.70;3.58;;;7.30;99.90;;;;;;5050670;28;20056;-60
2022/12/28 02:32:18;;;;;;;6.55;3.35;;;7.30;99.90;;;;;;5049595;28;20053;-61
2022/12/28 02:35:02;;;;;;;5.68;3.25;;;7.30;99.90;;;;;;5049932;28;20033;-61
2022/12/28 02:37:35;;;;;;;9.95;4.00;;;7.30;99.90;;;;;;5046320;28;20021;-61
2022/12/28 02:40:07;;;;;;;9.35;4.10;;;7.20;99.90;;;;;;5047363;28;20083;-61
2022/12/28 02:42:35;;;;;;;6.15;3.92;;;7.20;99.90;;;;;;5048407;28;20017;-60
2022/12/28 02:51:09;;;;;;;5.60;3.65;;;7.20;99.90;;;;;;5058931;28;20032;-60
2022/12/28 02:54:00;;;;;;;9.75;3.90;;;7.20;99.90;;;;;;5040328;28;20041;-61
2022/12/28 02:56:54;;;;;;;12.32;3.90;;;7.20;99.90;;;;;;5046402;28;20079;-61
2022/12/28 02:59:34;;;;;;;7.80;3.80;;;7.20;99.90;;;;;;5048345;28;20045;-60
2022/12/28 03:02:24;;;;;;;5.70;3.85;;;7.20;99.90;;;;;;5049614;28;20043;-60
2022/12/28 03:05:09;;;;;;;7.80;3.60;;;7.20;99.90;;;;;;5046971;28;20045;-60
2022/12/28 03:10:27;;;;;;;9.35;4.60;;;7.20;99.90;;;;;;5048531;28;20071;-60
2022/12/28 03:13:41;;;;;;;8.48;3.72;;;7.20;99.90;;;;;;5048031;28;20615;-60
2022/12/28 03:15:56;;;;;;;6.10;4.15;;;7.20;99.90;;;;;;5044655;28;20076;-61
2022/12/28 03:32:21;;;;;;;8.30;4.90;;;7.20;99.90;;;;;;5042963;28;20389;-60
2022/12/28 03:34:46;;;;;;;8.45;5.38;;;7.20;99.90;;;;;;5047772;28;20042;-61
2022/12/28 03:37:24;;;;;;;8.52;5.13;;;7.20;99.90;;;;;;5062101;28;20076;-61
2022/12/28 03:39:57;;;;;;;7.93;4.90;;;7.20;99.90;;;;;;5049438;28;20013;-61
2022/12/28 03:45:43;;;;;;;10.10;5.05;;;7.20;99.90;;;;;;5051658;28;20119;-61
2022/12/28 03:48:10;;;;;;;8.50;5.15;;;7.20;99.90;;;;;;5046279;28;20136;-61
2022/12/28 03:50:39;;;;;;;8.05;4.53;;;7.20;99.90;;;;;;5034959;28;20025;-61
2022/12/28 03:53:05;;;;;;;9.40;5.53;;;7.30;99.90;;;;;;5050733;28;20025;-61
2022/12/28 03:55:31;;;;;;;6.75;4.60;;;7.30;99.90;;;;;;5050443;28;20029;-60
2022/12/28 03:57:57;;;;;;;7.40;5.18;;;7.30;99.90;;;;;;5049317;28;20078;-61
2022/12/28 04:00:22;;;;;;;9.88;5.10;;;7.40;99.90;;;;;;5050322;28;20037;-60
2022/12/28 04:02:48;;;;;;;10.27;5.18;;;7.40;99.90;;;;;;5051500;28;20028;-61
2022/12/28 04:05:14;;;;;;;7.05;5.13;;;7.50;99.90;;;;;;5049308;28;20377;-61
2022/12/28 04:07:40;;;;;;;6.22;4.50;;;7.50;99.90;;;;;;5050904;28;20067;-60
2022/12/28 04:10:05;;;;;;;5.72;4.47;;;7.50;99.90;;;;;;5050479;28;20032;-61
2022/12/28 04:12:31;;;;;;;9.63;4.65;;;7.50;99.90;;;;;;5054686;28;20021;-61
2022/12/28 04:14:56;;;;;;;5.50;4.18;;;7.60;99.90;;;;;;5050763;28;20033;-60
2022/12/28 04:17:22;;;;;;;8.45;4.78;;;7.60;99.90;;;;;;5050693;28;20052;-61
2022/12/28 04:19:47;;;;;;;5.35;4.30;;;7.60;99.90;;;;;;5050718;28;20028;-60
2022/12/28 04:22:13;;;;;;;7.15;4.20;;;7.70;99.90;;;;;;5049710;28;20041;-60
2022/12/28 04:24:38;;;;;;;7.85;4.60;;;7.70;99.90;;;;;;5050505;28;20040;-61
2022/12/28 04:27:04;;;;;;;6.60;4.45;;;7.80;99.90;;;;;;5049831;28;20482;-61
2022/12/28 04:29:29;;;;;;;7.63;4.47;;;7.80;99.90;;;;;;5050653;28;20036;-61
2022/12/28 04:31:55;;;;;;;6.28;4.40;;;7.90;99.90;;;;;;5050395;28;20100;-61
2022/12/28 04:34:20;;;;;;;7.10;4.25;;;8.00;99.90;;;;;;5050903;28;20493;-61
2022/12/28 04:36:46;;;;;;;9.55;4.85;;;8.00;99.90;;;;;;5054216;28;20037;-60
2022/12/28 04:39:11;;;;;;;8.77;4.45;;;8.00;99.90;;;;;;5049849;28;20104;-61
2022/12/28 04:41:37;;;;;;;5.32;4.50;;;8.00;99.90;;;;;;5050513;28;20484;-61
2022/12/28 04:44:03;;;;;;;7.47;4.60;;;8.10;99.90;;;;;;5049913;28;20020;-60
2022/12/28 04:46:28;;;;;;;5.90;4.28;;;8.10;99.90;;;;;;5048627;28;20021;-60
2022/12/28 04:48:54;;;;;;;7.47;4.22;;;8.10;99.90;;;;;;5050330;28;20448;-60
2022/12/28 04:51:25;;;;;;;13.48;5.35;;;8.10;99.90;;;;;;5045633;28;20116;-60
2022/12/28 04:53:51;;;;;;;6.00;4.25;;;8.10;99.90;;;;;;5048052;28;20071;-61
2022/12/28 04:56:18;;;;;;;4.72;4.00;;;8.10;99.90;;;;;;5050213;28;20395;-61
2022/12/28 04:58:45;;;;;;;6.20;4.50;;;8.20;99.90;;;;;;5050057;28;20017;-60
2022/12/28 05:01:17;;;;;;;8.27;4.47;;;8.10;99.90;;;;;;5049802;28;20392;-61
2022/12/28 05:03:44;;;;;;;8.07;4.82;;;8.10;99.90;;;;;;5050188;28;20013;-60
2022/12/28 05:06:15;;;;;;;8.90;5.18;;;8.10;99.90;;;;;;5049855;28;20021;-60
2022/12/28 05:08:42;;;;;;;7.35;4.88;;;8.10;99.90;;;;;;5050119;28;20114;-60
2022/12/28 05:11:11;;;;;;;6.78;4.57;;;8.10;99.90;;;;;;5049400;28;20108;-60
2022/12/28 05:13:37;;;;;;;9.05;4.53;;;8.10;99.90;;;;;;5049843;28;20037;-60
2022/12/28 05:16:08;;;;;;;10.63;4.88;;;8.10;99.90;;;;;;5049604;28;20083;-60
2022/12/28 05:18:34;;;;;;;8.38;4.38;;;8.10;99.90;;;;;;5047944;28;20013;-61
2022/12/28 05:21:04;;;;;;;9.35;4.47;;;8.10;99.90;;;;;;5050073;28;20389;-60
2022/12/28 05:23:31;;;;;;;6.60;4.60;;;8.10;99.90;;;;;;5047404;28;20028;-61
2022/12/28 05:25:57;;;;;;;8.98;4.72;;;8.10;99.90;;;;;;5018582;28;20039;-61
2022/12/28 05:28:24;;;;;;;7.80;4.57;;;8.10;99.90;;;;;;5047857;28;20385;-60
2022/12/28 05:30:50;;;;;;;6.10;4.32;;;8.20;99.90;;;;;;5049895;28;20116;-60
2022/12/28 05:33:15;;;;;;;5.90;4.30;;;8.20;99.90;;;;;;5049787;28;20112;-61
2022/12/28 05:35:41;;;;;;;11.05;4.88;;;8.20;99.90;;;;;;5031876;28;20553;-60
2022/12/28 05:38:06;;;;;;;9.88;4.40;;;8.20;99.90;;;;;;5049489;28;20535;-60
2022/12/28 05:40:32;;;;;;;5.53;4.55;;;8.20;99.90;;;;;;5049795;28;20441;-60
2022/12/28 05:42:59;;;;;;;7.40;4.18;;;8.30;99.90;;;;;;5049535;28;20070;-60
2022/12/28 05:45:24;;;;;;;5.00;3.78;;;8.30;99.90;;;;;;5049490;28;20476;-60
2022/12/28 05:47:50;;;;;;;7.30;4.43;;;8.30;99.90;;;;;;5049640;28;20032;-61
2022/12/28 05:50:15;;;;;;;5.32;3.40;;;8.30;99.90;;;;;;5049527;28;20088;-60
2022/12/28 05:52:41;;;;;;;6.65;4.00;;;8.40;99.90;;;;;;5049502;28;20035;-60
2022/12/28 05:55:07;;;;;;;6.70;3.67;;;8.40;99.90;;;;;;5049699;28;20041;-61
2022/12/28 05:57:32;;;;;;;3.92;3.38;;;8.40;99.90;;;;;;5053051;28;20468;-62
2022/12/28 05:59:58;;;;;;;5.60;2.80;;;8.40;99.90;;;;;;5053303;28;20104;-60
2022/12/28 06:02:26;;;;;;;6.57;3.28;;;8.30;99.90;;;;;;5053153;28;20147;-61
2022/12/28 06:04:55;;;;;;;6.13;3.25;;;8.40;99.90;;;;;;5053277;28;20523;-60
2022/12/28 06:07:21;;;;;;;4.07;3.05;;;8.40;99.90;;;;;;5053017;28;20033;-60
2022/12/28 06:09:46;;;;;;;4.57;2.78;;;8.40;99.90;;;;;;5051474;28;20026;-60
2022/12/28 06:12:12;;;;;;;7.10;3.05;;;8.40;99.90;;;;;;5053018;28;20044;-60
2022/12/28 06:14:37;;;;;;;5.22;3.08;;;8.40;99.90;;;;;;5053416;28;20017;-60
2022/12/28 06:17:03;;;;;;;3.80;3.20;;;8.50;99.90;;;;;;5051447;28;20040;-60
2022/12/28 06:19:29;;;;;;;7.38;2.78;;;8.50;99.90;;;;;;5053332;28;20024;-60
2022/12/28 06:21:54;;;;;;;4.85;2.90;;;8.50;99.90;;;;;;5053070;28;20021;-60
2022/12/28 06:24:20;;;;;;;4.60;2.88;;;8.50;99.90;;;;;;5054196;28;20520;-60
2022/12/28 06:26:45;;;;;;;5.00;2.95;;;8.60;99.90;;;;;;5053917;28;20025;-60
2022/12/28 06:29:11;;;;;;;5.15;2.70;;;8.60;99.90;;;;;;5053871;28;20036;-61
2022/12/28 06:31:39;;;;;;;4.55;2.33;;;8.60;99.90;;;;;;5069044;28;20031;-60
2022/12/28 06:34:08;;;;;;;3.80;2.78;;;8.60;99.90;;;;;;5044729;28;20025;-61
2022/12/28 06:36:44;;;;;;;4.00;2.47;;;8.70;99.90;;;;;;5053279;28;20047;-60
2022/12/28 06:39:12;;;;;;;5.60;2.78;;;8.70;99.90;;;;;;5053706;28;20102;-60
2022/12/28 06:41:38;;;;;;;4.93;2.70;;;8.70;99.90;;;;;;5053159;28;20111;-61
2022/12/28 06:44:06;;;;;;;4.22;2.20;;;8.80;99.90;;;;;;5053708;28;20024;-60
2022/12/28 06:46:31;;;;;;;4.13;2.13;;;8.80;99.90;;;;;;5037689;28;20033;-61
2022/12/28 06:48:57;;;;;;;3.45;2.03;;;8.80;99.90;;;;;;5051342;28;20048;-60
2022/12/28 06:51:25;;;;;;;3.22;2.22;;;8.80;99.90;;;;;;5053370;28;20345;-61
2022/12/28 06:53:52;;;;;;;2.80;1.67;;;8.90;99.90;;;;;;5053062;28;20082;-60
2022/12/28 06:56:27;;;;;;;3.35;1.88;;;8.90;99.90;;;;;;5052406;28;20032;-61
2022/12/28 06:58:53;;;;;;;3.67;1.88;;;8.90;99.90;;;;;;5036970;28;20358;-60
2022/12/28 07:01:29;;;;;;;3.65;1.85;;;8.90;99.90;;;;;;5039768;28;20021;-60
2022/12/28 07:03:56;;;;;;;2.95;2.03;;;9.00;99.90;;;;;;5053487;28;20065;-61
2022/12/28 07:06:25;;;;;;;4.78;1.90;;;9.00;99.90;;;;;;5047910;28;20025;-61
2022/12/28 07:08:51;;;;;;;3.45;1.75;;;9.00;99.90;;;;;;5042359;28;20029;-60
2022/12/28 07:11:21;;;;;;;3.72;1.85;;;9.00;99.90;;;;;;5050615;28;20064;-61
2022/12/28 07:13:47;;;;;;;3.60;1.70;;;9.00;99.90;;;;;;5053381;28;20401;-61
2022/12/28 07:16:15;;;;;;;6.00;2.00;;;9.00;99.90;;;;;;5053023;28;20396;-60
2022/12/28 07:18:42;;;;;;;4.32;2.10;;;9.00;99.90;;;;;;5053118;28;20020;-60
2022/12/28 07:21:10;;;;;;;4.20;2.35;;;9.10;99.90;;;;;;5052857;28;20056;-61
2022/12/28 07:23:36;;;;;;;2.63;1.73;;;9.10;99.90;;;;;;5052899;28;20061;-60
2022/12/28 07:26:10;;;;;;;2.83;2.08;;;9.10;99.90;;;;;;5038948;28;20114;-60
2022/12/28 07:28:40;;;;;;;3.55;1.83;;;9.10;99.90;;;;;;5032781;28;20427;-61
2022/12/28 07:31:06;;;;;;;;;;;9.20;99.90;;;;;;5033579;28;20025;-60
2022/12/28 07:33:34;;;;;;;3.55;1.73;;;9.10;99.90;;;;;;5034278;28;19912;-61
2022/12/28 07:35:59;;;;;;;3.50;2.20;;;9.10;99.90;;;;;;5043301;28;20356;-61
2022/12/28 07:38:25;;;;;;;4.78;2.13;;;9.10;99.90;;;;;;5034350;28;20099;-60
2022/12/28 07:40:50;;;;;;;5.50;2.05;;;9.20;99.90;;;;;;5036251;28;20026;-60
2022/12/28 07:43:16;;;;;;;4.75;2.10;;;9.20;99.90;;;;;;5042350;28;20031;-61
2022/12/28 07:45:41;;;;;;;7.03;2.05;;;9.20;99.90;;;;;;5053080;28;20102;-60
2022/12/28 07:48:07;;;;;;;3.42;1.83;;;9.20;99.90;;;;;;5051679;28;20481;-61
2022/12/28 07:50:32;;;;;;;5.00;1.90;;;9.20;99.90;;;;;;5052302;28;20408;-60
2022/12/28 07:53:00;;;;;;;3.55;2.03;;;9.20;99.90;;;;;;5052369;28;20925;-60
2022/12/28 07:55:28;;;;;;;3.45;2.20;;;9.20;99.90;;;;;;5051718;28;20056;-60
2022/12/28 07:57:54;;;;;;;4.82;2.42;;;9.30;99.90;;;;;;5042366;28;20013;-61
2022/12/28 08:00:20;;;;;;;5.97;2.28;;;9.30;99.90;;;;;;5051222;28;20095;-60
2022/12/28 08:02:45;;;;;;;3.63;2.45;;;9.20;99.90;;;;;;5051456;28;20025;-61
2022/12/28 08:05:11;;;;;;;3.50;2.03;;;9.20;99.90;;;;;;5050582;28;20657;-60
2022/12/28 08:07:36;;;;;;;4.13;2.38;;;9.30;99.90;;;;;;5052333;28;20678;-60
2022/12/28 08:10:02;;;;;;;6.40;2.63;;;9.30;99.90;;;;;;5052615;28;20485;-60
2022/12/28 08:12:27;;;;;;;4.80;2.35;;;9.30;99.90;;;;;;5050195;28;20063;-60
2022/12/28 08:14:53;;;;;;;2.90;1.90;;;9.30;99.90;;;;;;5050064;28;20033;-60
2022/12/28 08:17:18;;;;;;;6.25;2.17;;;9.30;99.90;;;;;;5049773;28;20021;-60
2022/12/28 08:19:44;;;;;;;4.90;1.90;;;9.30;99.90;;;;;;5052033;28;20028;-60
2022/12/28 08:22:09;;;;;;;5.80;2.22;;;9.30;99.90;;;;;;5049869;28;20036;-60
2022/12/28 08:24:35;;;;;;;7.45;2.65;;;9.40;99.90;;;;;;5052305;28;20370;-60
2022/12/28 08:27:00;;;;;;;5.28;1.90;;;9.40;99.90;;;;;;5047362;28;20073;-60
2022/12/28 08:29:26;;;;;;;4.82;2.08;;;9.40;99.90;;;;;;5035294;28;20397;-61
2022/12/28 08:31:51;;;;;;;4.53;2.08;;;9.40;99.90;;;;;;5035086;28;20045;-61
2022/12/28 08:34:25;;;;;;;5.03;2.17;;;9.40;99.90;;;;;;5043402;28;20029;-60
2022/12/28 08:36:50;;;;;;;4.97;2.03;;;9.40;99.90;;;;;;5045973;28;20033;-60
2022/12/28 08:39:16;;;;;;;4.22;1.95;;;9.40;99.90;;;;;;5040197;28;20033;-61
2022/12/28 08:41:41;;;;;;;3.47;1.50;;;9.40;99.90;;;;;;5031712;28;20041;-61
2022/12/28 08:44:07;;;;;;;4.88;1.77;;;9.40;99.90;;;;;;5044881;28;20020;-60
2022/12/28 08:46:34;;;;;;;4.50;1.85;;;9.50;99.90;;;;;;5051209;28;20025;-60
2022/12/28 08:49:01;;;;;;;5.38;1.77;;;9.40;99.90;;;;;;5051786;28;20036;-61
2022/12/28 08:51:33;;;;;;;3.85;1.40;;;9.40;99.90;;;;;;5050854;28;20538;-61
2022/12/28 08:53:59;;;;;;;4.80;1.63;;;9.40;99.90;;;;;;5033672;28;20369;-60
2022/12/28 08:56:32;;;;;;;3.38;2.05;;;9.40;99.90;;;;;;5049644;28;20044;-61
2022/12/28 08:58:59;;;;;;;4.25;2.00;;;9.30;99.90;;;;;;5050212;28;20246;-60
2022/12/28 09:01:28;;;;;;;7.03;2.35;;;9.30;99.90;;;;;;5043631;28;20052;-61
2022/12/28 09:03:58;;;;;;;4.45;2.10;;;9.30;99.90;;;;;;5049815;28;20021;-60
2022/12/28 09:06:30;;;;;;;4.55;2.28;;;9.20;99.90;;;;;;5046585;28;20025;-60
2022/12/28 09:08:56;;;;;;;5.38;2.30;;;9.20;99.90;;;;;;5047897;28;20526;-61
2022/12/28 09:11:22;;;;;;;5.55;3.15;;;9.20;99.90;;;;;;5047155;28;20587;-60
2022/12/28 09:13:48;;;;;;;10.27;3.08;;;9.20;99.90;;;;;;5048229;28;20092;-60
2022/12/28 09:16:17;;;;;;;7.25;2.97;;;9.20;99.90;;;;;;5047346;28;20043;-60
2022/12/28 09:18:44;;;;;;;8.68;2.88;;;9.20;99.90;;;;;;5048076;28;20013;-61
2022/12/28 09:21:20;;;;;;;5.93;2.92;;;9.20;99.90;;;;;;5050112;28;20014;-60
2022/12/28 09:23:47;;;;;;;7.00;2.45;;;9.30;99.90;;;;;;5046927;28;20017;-60
2022/12/28 09:26:15;;;;;;;6.95;2.55;;;9.30;99.90;;;;;;5047296;28;20025;-61
2022/12/28 09:28:49;;;;;;;5.57;2.60;;;9.30;99.90;;;;;;5048212;28;20103;-60
2022/12/28 09:31:15;;;;;;;7.82;2.60;;;9.30;99.90;;;;;;5043622;28;20029;-61
2022/12/28 09:36:31;;;;;;;7.82;2.55;;;9.30;99.90;;;;;;5046729;28;20487;-60
2022/12/28 09:38:58;;;;;;;8.38;3.53;;;9.30;99.90;;;;;;5032004;28;20025;-61
2022/12/28 09:41:38;;;;;;;5.95;2.83;;;9.40;99.90;;;;;;5047402;28;20071;-61
2022/12/28 09:44:03;;;;;;;;;;;9.40;99.90;;;;;;5033048;28;20014;-60
2022/12/28 09:46:31;;;;;;;6.65;2.30;;;9.30;99.90;;;;;;5050551;28;20265;-60
2022/12/28 09:49:00;;;;;;;4.57;2.30;;;9.30;99.90;;;;;;5048969;28;20024;-60
2022/12/28 09:51:33;;;;;;;4.85;2.30;;;9.30;99.90;;;;;;5045165;28;20493;-60
2022/12/28 09:53:59;;;;;;;5.07;2.45;;;9.30;99.90;;;;;;5042264;28;20478;-60
2022/12/28 09:56:34;;;;;;;3.83;2.10;;;9.20;99.90;;;;;;5034657;28;20032;-60
2022/12/28 09:59:04;;;;;;;5.47;2.40;;;9.20;99.90;;;;;;5043186;28;20021;-61
2022/12/28 10:01:33;;;;;;;7.40;2.40;;;9.20;99.90;;;;;;5050448;28;20124;-60
2022/12/28 10:04:01;;;;;;;7.55;2.55;;;9.20;99.90;;;;;;5047214;28;20036;-60
2022/12/28 10:06:31;;;;;;;4.70;2.30;;;9.20;99.90;;;;;;5041819;28;20055;-60
2022/12/28 10:08:59;;;;;;;7.65;2.75;;;9.20;99.90;;;;;;5049806;28;20116;-60
2022/12/28 10:11:35;;;;;;;6.60;2.58;;;9.20;99.90;;;;;;5050564;28;20122;-60
2022/12/28 10:14:14;;;;;;;8.02;2.55;;;9.20;99.90;;;;;;5047034;28;20508;-60
2022/12/28 10:16:40;;;;;;;4.90;2.45;;;9.20;99.90;;;;;;5037904;28;20029;-60
2022/12/28 10:19:06;;;;;;;6.93;3.30;;;9.20;99.90;;;;;;5049129;28;20032;-60
2022/12/28 10:21:32;;;;;;;4.82;2.90;;;9.20;99.90;;;;;;5031433;28;20488;-60
2022/12/28 10:23:59;;;;;;;6.68;2.80;;;9.20;99.90;;;;;;5049021;28;20049;-60
2022/12/28 10:26:25;;;;;;;5.68;2.88;;;9.20;99.90;;;;;;5049468;28;20021;-60
2022/12/28 10:28:58;;;;;;;7.45;2.58;;;9.20;99.90;;;;;;5049683;28;20036;-60
2022/12/28 10:31:42;;;;;;;3.72;2.50;;;9.30;99.90;;;;;;5040272;28;20032;-60
2022/12/28 10:34:16;;;;;;;5.10;2.42;;;9.30;99.90;;;;;;5040515;28;20024;-61
2022/12/28 10:36:42;;;;;;;4.55;2.15;;;9.40;99.90;;;;;;5045867;28;20029;-60
2022/12/28 10:39:15;;;;;;;3.50;2.10;;;9.30;99.90;;;;;;5044948;28;20067;-61
2022/12/28 10:41:44;;;;;;;6.55;2.00;;;9.30;99.90;;;;;;5048377;28;20025;-60
2022/12/28 10:44:20;;;;;;;4.10;1.60;;;9.40;99.90;;;;;;5051633;28;20381;-61
2022/12/28 10:46:59;;;;;;;2.47;1.65;;;9.40;99.90;;;;;;5066179;28;20502;-60
2022/12/28 10:49:26;;;;;;;3.65;1.50;;;9.40;99.90;;;;;;5051382;28;20032;-61
2022/12/28 10:52:05;;;;;;;4.13;1.45;;;9.40;99.90;;;;;;5042846;28;20025;-60
2022/12/28 10:54:34;;;;;;;3.08;1.20;;;9.40;99.90;;;;;;5048945;28;20074;-60
2022/12/28 10:56:59;;;;;;;2.88;1.40;;;9.40;99.90;;;;;;5051878;28;20373;-60
2022/12/28 10:59:27;;;;;;;4.10;1.20;;;9.30;99.90;;;;;;5051517;28;20041;-60
2022/12/28 11:01:55;;;;;;;2.28;1.30;;;9.40;99.90;;;;;;5048613;28;20017;-63
2022/12/28 11:04:24;;;;;;;1.27;1.00;;;9.40;99.90;;;;;;5051028;28;20438;-61
2022/12/28 11:06:55;;;;;;;2.95;1.00;;;9.40;99.90;;;;;;5042154;28;20093;-60
2022/12/28 11:09:32;;;;;;;1.50;1.10;;;9.40;99.90;;;;;;5051630;28;20021;-60
2022/12/28 11:12:24;;;;;;;1.73;1.10;;;9.40;99.90;;;;;;5035173;28;20031;-61
2022/12/28 11:14:51;;;;;;;1.65;1.13;;;9.30;99.90;;;;;;5053303;28;20017;-60
2022/12/28 11:17:19;;;;;;;1.33;1.00;;;9.30;99.90;;;;;;5049697;28;20035;-60
2022/12/28 11:19:48;;;;;;;4.30;1.40;;;9.30;99.90;;;;;;5053352;28;20017;-60
2022/12/28 11:22:19;;;;;;;3.47;1.52;;;9.30;99.90;;;;;;5034999;28;20025;-60
2022/12/28 11:24:45;;;;;;;2.25;1.10;;;9.40;99.90;;;;;;5049459;28;20021;-61
2022/12/28 11:27:17;;;;;;;3.63;1.10;;;9.30;99.90;;;;;;5053345;28;20032;-60
2022/12/28 11:29:48;;;;;;;1.50;1.10;;;9.40;99.90;;;;;;5043557;28;20464;-61
2022/12/28 11:32:26;;;;;;;2.78;1.48;;;9.40;99.90;;;;;;5035088;28;20119;-61
2022/12/28 11:34:55;;;;;;;2.28;1.10;;;9.40;99.90;;;;;;5052934;28;20439;-60
2022/12/28 11:37:20;;;;;;;5.63;1.48;;;9.40;99.90;;;;;;5052976;28;20734;-60
2022/12/28 11:39:48;;;;;;;2.00;1.30;;;9.40;99.90;;;;;;5052888;28;20371;-60
2022/12/28 11:42:33;;;;;;;1.88;1.30;;;9.40;99.90;;;;;;5046805;28;20108;-61
2022/12/28 11:45:01;;;;;;;2.13;1.23;;;9.40;99.90;;;;;;5047717;28;20046;-61
2022/12/28 11:47:32;;;;;;;3.47;1.40;;;9.30;99.90;;;;;;5052607;28;20118;-60
2022/12/28 11:50:38;;;;;;;3.10;1.58;;;9.40;99.90;;;;;;5052387;28;20033;-60
2022/12/28 11:53:22;;;;;;;4.78;1.58;;;9.40;99.90;;;;;;5050767;28;20017;-60
2022/12/28 11:56:04;;;;;;;3.90;1.55;;;9.30;99.90;;;;;;5051620;28;20028;-61
2022/12/28 11:58:29;;;;;;;5.20;1.52;;;9.40;99.90;;;;;;5045158;28;20074;-60
2022/12/28 12:00:55;;;;;;;5.38;1.30;;;9.30;99.90;;;;;;5049103;28;20415;-60
2022/12/28 12:03:56;;;;;;;2.63;1.40;;;9.30;99.90;;;;;;5048216;28;20043;-60
2022/12/28 12:06:43;;;;;;;1.85;1.38;;;9.30;99.90;;;;;;5048049;28;20025;-60
2022/12/28 12:09:22;;;;;;;5.53;2.10;;;9.30;99.90;;;;;;5045901;28;20117;-60
2022/12/28 12:11:50;;;;;;;5.57;1.70;;;9.30;99.90;;;;;;5047688;28;20017;-60
2022/12/28 12:14:22;;;;;;;4.07;1.95;;;9.20;99.90;;;;;;5046692;28;20037;-60
2022/12/28 12:16:50;;;;;;;3.55;1.60;;;9.20;99.90;;;;;;5048126;28;20036;-60
2022/12/28 12:19:24;;;;;;;3.15;1.80;;;9.20;99.90;;;;;;5031151;28;20060;-60
2022/12/28 12:22:01;;;;;;;3.42;1.98;;;9.30;99.90;;;;;;5043363;28;20032;-60
2022/12/28 12:24:36;;;;;;;6.13;1.70;;;9.30;99.90;;;;;;5042870;28;20025;-60
2022/12/28 12:27:11;;;;;;;5.20;1.90;;;9.20;99.90;;;;;;5050317;28;20032;-60
2022/12/28 12:29:39;;;;;;;5.90;2.20;;;9.20;99.90;;;;;;5050801;28;20029;-61
2022/12/28 12:32:24;;;;;;;3.28;2.20;;;9.20;99.90;;;;;;5044612;28;20428;-61
2022/12/28 12:34:58;;;;;;;8.68;2.33;;;9.20;99.90;;;;;;5032832;28;20014;-61
2022/12/28 12:37:24;;;;;;;4.72;2.20;;;9.20;99.90;;;;;;5036226;28;20021;-61
2022/12/28 12:40:08;;;;;;;4.60;2.28;;;9.20;99.90;;;;;;5035889;28;20509;-60
2022/12/28 12:42:56;;;;;;;6.38;2.30;;;9.20;99.90;;;;;;5036897;28;20021;-61
2022/12/28 12:45:56;;;;;;;4.90;2.22;;;9.20;99.90;;;;;;5031764;28;20025;-61
2022/12/28 12:48:49;;;;;;;5.03;2.28;;;9.20;99.90;;;;;;5043555;28;20028;-61
2022/12/28 12:51:30;;;;;;;8.77;2.20;;;9.20;99.90;;;;;;5046582;28;20032;-60
2022/12/28 12:54:17;;;;;;;8.82;3.22;;;9.30;99.90;;;;;;5045870;28;20031;-60
2022/12/28 12:56:49;;;;;;;3.13;1.80;;;9.30;99.90;;;;;;5049485;28;20017;-61
2022/12/28 12:59:33;;;;;;;4.57;2.20;;;9.30;99.90;;;;;;5044632;28;20036;-61
2022/12/28 13:02:11;;;;;;;4.30;2.40;;;9.30;99.90;;;;;;5048440;28;20035;-60
2022/12/28 13:04:41;;;;;;;5.28;2.20;;;9.40;99.90;;;;;;5044600;28;20033;-61
2022/12/28 13:07:20;;;;;;;6.25;2.35;;;9.40;99.90;;;;;;5047071;28;20404;-60
2022/12/28 13:09:47;;;;;;;5.38;1.85;;;9.40;99.90;;;;;;5046304;28;20025;-60
2022/12/28 13:12:17;;;;;;;5.88;2.42;;;9.50;99.90;;;;;;5044358;28;20481;-60
2022/12/28 13:14:51;;;;;;;5.72;1.77;;;9.50;99.90;;;;;;5048090;28;20047;-60
2022/12/28 13:17:20;;;;;;;3.90;2.15;;;9.50;99.90;;;;;;5044505;28;20258;-61
2022/12/28 13:19:46;;;;;;;7.15;2.05;;;9.50;99.90;;;;;;5047896;28;20013;-60
2022/12/28 13:22:31;;;;;;;10.20;2.25;;;9.50;99.90;;;;;;5047708;28;20037;-60
2022/12/28 13:25:00;;;;;;;5.93;2.25;;;9.60;99.90;;;;;;5029526;28;20020;-60
2022/12/28 13:27:35;;;;;;;8.23;2.58;;;9.60;99.90;;;;;;5062340;28;20150;-61
2022/12/28 13:30:01;;;;;;;4.60;1.88;;;9.60;99.90;;;;;;5062752;28;20029;-60
2022/12/28 13:32:36;;;;;;;5.95;2.03;;;9.60;99.90;;;;;;5047678;28;20055;-61
2022/12/28 13:35:02;;;;;;;7.88;2.08;;;9.60;99.90;;;;;;5034192;28;20038;-60
2022/12/28 13:37:27;;;;;;;5.72;1.92;;;9.70;99.90;;;;;;5047455;28;20032;-60
2022/12/28 13:40:15;;;;;;;7.40;2.00;;;9.60;99.90;;;;;;5047089;28;20369;-60